createdAt,value
2018-05-24T00:00:09.603Z,14.10
2018-05-24T00:02:37.087Z,14.20
2018-05-24T00:05:04.629Z,14.10
2018-05-24T00:07:32.114Z,14.20
2018-05-24T00:09:59.639Z,14.20
2018-05-24T00:12:27.121Z,14.10
2018-05-24T00:14:54.619Z,14.10
2018-05-24T00:17:22.131Z,14.10
2018-05-24T00:19:49.639Z,14.10
2018-05-24T00:22:17.149Z,14.10
2018-05-24T00:24:44.628Z,14.00
2018-05-24T00:27:12.131Z,14.00
2018-05-24T00:29:40.389Z,14.00
2018-05-24T00:32:07.907Z,14.00
2018-05-24T00:34:35.387Z,14.10
2018-05-24T00:37:02.895Z,14.00
2018-05-24T00:39:30.408Z,14.10
2018-05-24T00:41:57.918Z,14.10
2018-05-24T00:44:25.413Z,14.00
2018-05-24T00:46:54.392Z,14.00
2018-05-24T00:49:21.987Z,14.00
2018-05-24T00:51:49.470Z,13.90
2018-05-24T00:54:16.984Z,13.90
2018-05-24T00:56:44.460Z,13.90
2018-05-24T00:59:11.976Z,13.80
2018-05-24T01:01:39.460Z,13.90
2018-05-24T01:04:06.968Z,14.00
2018-05-24T01:06:34.499Z,13.90
2018-05-24T01:09:01.980Z,13.90
2018-05-24T01:11:30.285Z,13.90
2018-05-24T01:13:57.725Z,13.90
2018-05-24T01:16:25.969Z,13.90
2018-05-24T01:18:53.479Z,13.90
2018-05-24T01:21:20.962Z,14.00
2018-05-24T01:23:48.480Z,14.10
2018-05-24T01:26:16.736Z,14.00
2018-05-24T01:28:44.215Z,14.00
2018-05-24T01:31:12.492Z,14.00
2018-05-24T01:33:40.738Z,14.00
2018-05-24T01:36:08.251Z,14.00
2018-05-24T01:38:35.748Z,14.00
2018-05-24T01:41:03.247Z,14.00
2018-05-24T01:43:31.503Z,13.90
2018-05-24T01:45:59.023Z,13.90
2018-05-24T01:48:26.506Z,14.00
2018-05-24T01:50:54.001Z,13.90
2018-05-24T01:53:22.247Z,13.80
2018-05-24T01:55:49.751Z,13.80
2018-05-24T01:58:17.247Z,13.70
2018-05-24T02:00:44.752Z,13.70
2018-05-24T02:03:13.002Z,13.70
2018-05-24T02:05:40.516Z,13.70
2018-05-24T02:08:08.007Z,13.70
2018-05-24T02:10:35.517Z,13.70
2018-05-24T02:13:03.004Z,13.60
2018-05-24T02:15:30.530Z,13.50
2018-05-24T02:17:58.800Z,13.30
2018-05-24T02:20:27.083Z,13.30
2018-05-24T02:22:55.340Z,13.20
2018-05-24T02:25:22.823Z,13.20
2018-05-24T02:27:50.341Z,13.20
2018-05-24T02:30:17.830Z,13.20
2018-05-24T02:32:46.114Z,13.10
2018-05-24T02:35:13.605Z,13.10
2018-05-24T02:37:41.119Z,13.10
2018-05-24T02:40:09.372Z,13.00
2018-05-24T02:42:36.879Z,13.00
2018-05-24T02:45:04.383Z,13.00
2018-05-24T02:47:31.882Z,13.00
2018-05-24T02:50:00.136Z,13.00
2018-05-24T02:52:27.651Z,12.90
2018-05-24T02:54:55.139Z,13.00
2018-05-24T02:57:22.656Z,13.00
2018-05-24T02:59:50.145Z,12.90
2018-05-24T03:02:17.672Z,12.90
2018-05-24T03:04:45.167Z,12.90
2018-05-24T03:07:12.666Z,12.90
2018-05-24T03:09:40.954Z,13.00
2018-05-24T03:12:08.456Z,12.90
2018-05-24T03:14:35.975Z,12.90
2018-05-24T03:17:04.230Z,12.90
2018-05-24T03:19:31.752Z,12.80
2018-05-24T03:21:59.238Z,12.80
2018-05-24T03:24:26.751Z,12.80
2018-05-24T03:26:54.242Z,12.90
2018-05-24T03:29:21.749Z,13.00
2018-05-24T03:31:49.241Z,13.10
2018-05-24T03:34:16.767Z,13.10
2018-05-24T03:36:44.258Z,13.20
2018-05-24T03:39:11.763Z,13.00
2018-05-24T03:41:40.012Z,12.70
2018-05-24T03:44:07.544Z,12.60
2018-05-24T03:46:35.036Z,12.60
2018-05-24T03:49:02.523Z,12.50
2018-05-24T03:51:30.811Z,12.50
2018-05-24T03:53:59.068Z,12.50
2018-05-24T03:56:27.343Z,12.50
2018-05-24T03:59:04.744Z,12.50
2018-05-24T04:01:44.883Z,12.50
2018-05-24T04:04:24.231Z,12.40
2018-05-24T04:06:52.519Z,12.40
2018-05-24T04:09:21.678Z,12.40
2018-05-24T04:11:49.204Z,12.40
2018-05-24T04:14:16.692Z,12.40
2018-05-24T04:16:44.213Z,12.50
2018-05-24T04:19:11.696Z,12.60
2018-05-24T04:21:39.212Z,12.60
2018-05-24T04:24:07.483Z,12.70
2018-05-24T04:26:35.749Z,12.70
2018-05-24T04:29:03.268Z,12.70
2018-05-24T04:31:30.760Z,12.80
2018-05-24T04:33:58.264Z,12.70
2018-05-24T04:36:25.755Z,12.80
2018-05-24T04:38:53.265Z,12.90
2018-05-24T04:41:21.525Z,13.10
2018-05-24T04:43:49.036Z,13.10
2018-05-24T04:46:16.530Z,13.10
2018-05-24T04:48:44.055Z,13.20
2018-05-24T04:51:11.557Z,13.40
2018-05-24T04:53:39.072Z,13.40
2018-05-24T04:56:06.547Z,13.50
2018-05-24T04:58:34.063Z,13.60
2018-05-24T05:01:01.582Z,13.70
2018-05-24T05:03:29.066Z,13.80
2018-05-24T05:05:57.340Z,13.80
2018-05-24T05:08:24.820Z,13.80
2018-05-24T05:10:52.330Z,14.00
2018-05-24T05:13:19.873Z,13.90
2018-05-24T05:15:47.340Z,13.90
2018-05-24T05:18:14.830Z,14.00
2018-05-24T05:20:42.346Z,13.90
2018-05-24T05:23:09.914Z,14.10
2018-05-24T05:25:37.344Z,14.30
2018-05-24T05:28:04.830Z,14.20
2018-05-24T05:30:32.494Z,14.40
2018-05-24T05:33:00.092Z,14.50
2018-05-24T05:35:27.697Z,14.60
2018-05-24T05:37:55.318Z,14.70
2018-05-24T05:40:22.804Z,15.00
2018-05-24T05:42:50.335Z,15.10
2018-05-24T05:45:17.838Z,15.00
2018-05-24T05:47:45.426Z,15.30
2018-05-24T05:50:12.990Z,15.30
2018-05-24T05:52:40.505Z,15.60
2018-05-24T05:55:07.992Z,15.70
2018-05-24T05:57:35.510Z,15.50
2018-05-24T06:00:03.767Z,15.60
2018-05-24T06:02:31.281Z,15.50
2018-05-24T06:04:58.771Z,15.60
2018-05-24T06:07:26.259Z,15.60
2018-05-24T06:09:54.535Z,15.70
2018-05-24T06:12:22.018Z,15.60
2018-05-24T06:14:49.535Z,15.90
2018-05-24T06:17:17.776Z,16.10
2018-05-24T06:19:45.288Z,16.10
2018-05-24T06:22:13.543Z,16.00
2018-05-24T06:24:41.043Z,16.00
2018-05-24T06:27:08.531Z,15.80
2018-05-24T06:29:36.041Z,15.70
2018-05-24T06:32:04.300Z,15.60
2018-05-24T06:34:31.817Z,15.60
2018-05-24T06:36:59.320Z,15.70
2018-05-24T06:39:27.590Z,15.80
2018-05-24T06:41:55.074Z,15.80
2018-05-24T06:44:23.382Z,15.70
2018-05-24T06:46:50.867Z,15.70
2018-05-24T06:49:18.377Z,15.80
2018-05-24T06:51:45.864Z,15.70
2018-05-24T06:54:13.387Z,15.70
2018-05-24T06:56:41.668Z,16.20
2018-05-24T06:59:09.937Z,16.10
2018-05-24T07:01:38.221Z,16.20
2018-05-24T07:04:06.476Z,16.10
2018-05-24T07:06:33.985Z,16.10
2018-05-24T07:09:01.493Z,16.00
2018-05-24T07:11:28.995Z,16.40
2018-05-24T07:13:56.475Z,17.20
2018-05-24T07:16:23.988Z,18.30
2018-05-24T07:18:52.244Z,19.00
2018-05-24T07:21:19.723Z,19.00
2018-05-24T07:23:47.996Z,19.90
2018-05-24T07:26:16.279Z,20.60
2018-05-24T07:28:44.527Z,21.20
2018-05-24T07:31:12.025Z,21.20
2018-05-24T07:33:39.535Z,21.90
2018-05-24T07:36:07.027Z,21.90
2018-05-24T07:38:35.296Z,21.30
2018-05-24T07:41:02.771Z,21.30
2018-05-24T07:43:31.036Z,20.60
2018-05-24T07:45:59.294Z,20.00
2018-05-24T07:48:26.795Z,19.90
2018-05-24T07:50:54.281Z,19.50
2018-05-24T07:53:21.800Z,19.20
2018-05-24T07:55:50.053Z,19.00
2018-05-24T07:58:17.536Z,18.90
2018-05-24T08:00:45.807Z,19.00
2018-05-24T08:03:14.061Z,19.20
2018-05-24T08:05:42.354Z,19.70
2018-05-24T08:08:10.600Z,20.00
2018-05-24T08:10:38.103Z,20.00
2018-05-24T08:13:06.376Z,20.60
2018-05-24T08:15:34.651Z,20.70
2018-05-24T08:18:02.908Z,21.20
2018-05-24T08:20:31.938Z,20.40
2018-05-24T08:23:00.195Z,21.40
2018-05-24T08:25:27.715Z,21.40
2018-05-24T08:27:55.218Z,22.10
2018-05-24T08:30:23.492Z,21.60
2018-05-24T08:32:51.741Z,21.60
2018-05-24T08:35:19.260Z,21.60
2018-05-24T08:37:46.775Z,21.30
2018-05-24T08:40:14.264Z,21.60
2018-05-24T08:42:41.768Z,22.00
2018-05-24T08:45:09.248Z,23.00
2018-05-24T08:47:36.780Z,23.30
2018-05-24T08:50:04.307Z,22.20
2018-05-24T08:52:31.781Z,22.10
2018-05-24T08:54:59.297Z,22.10
2018-05-24T08:57:26.776Z,22.20
2018-05-24T08:59:55.037Z,21.20
2018-05-24T09:02:23.283Z,21.10
2018-05-24T09:04:50.802Z,21.10
2018-05-24T09:07:18.283Z,22.00
2018-05-24T09:09:45.784Z,23.10
2018-05-24T09:12:13.272Z,23.80
2018-05-24T09:14:40.779Z,24.40
2018-05-24T09:17:08.296Z,23.00
2018-05-24T09:19:35.807Z,22.60
2018-05-24T09:22:04.797Z,23.80
2018-05-24T09:24:32.306Z,23.80
2018-05-24T09:26:59.786Z,24.70
2018-05-24T09:29:27.368Z,25.20
2018-05-24T09:31:54.836Z,26.70
2018-05-24T09:34:22.352Z,28.00
2018-05-24T09:36:49.849Z,28.80
2018-05-24T09:39:17.360Z,29.30
2018-05-24T09:41:44.864Z,28.60
2018-05-24T09:44:12.348Z,29.80
2018-05-24T09:46:40.622Z,32.40
2018-05-24T09:49:08.134Z,32.30
2018-05-24T09:51:35.667Z,34.40
2018-05-24T09:54:03.147Z,33.20
2018-05-24T09:56:30.637Z,28.90
2018-05-24T09:58:58.125Z,28.60
2018-05-24T10:01:26.474Z,27.30
2018-05-24T10:03:53.996Z,27.30
2018-05-24T10:06:21.502Z,26.70
2018-05-24T10:08:48.970Z,26.10
2018-05-24T10:11:16.584Z,26.70
2018-05-24T10:13:44.082Z,26.50
2018-05-24T10:16:11.694Z,26.10
2018-05-24T10:18:39.155Z,24.00
2018-05-24T10:21:06.646Z,22.70
2018-05-24T10:23:34.235Z,22.50
2018-05-24T10:26:02.408Z,21.30
2018-05-24T10:28:29.957Z,21.20
2018-05-24T10:30:58.253Z,20.40
2018-05-24T10:33:26.525Z,20.00
2018-05-24T10:35:54.832Z,19.90
2018-05-24T10:38:22.355Z,19.90
2018-05-24T10:40:49.863Z,19.80
2018-05-24T10:43:17.464Z,19.70
2018-05-24T10:45:45.671Z,19.70
2018-05-24T10:48:13.976Z,20.20
2018-05-24T10:50:41.455Z,20.20
2018-05-24T10:53:08.967Z,20.30
2018-05-24T10:55:37.246Z,20.10
2018-05-24T10:58:05.485Z,20.10
2018-05-24T11:00:32.991Z,20.10
2018-05-24T11:03:00.505Z,20.20
2018-05-24T11:05:27.994Z,20.40
2018-05-24T11:07:56.255Z,21.50
2018-05-24T11:10:23.726Z,21.40
2018-05-24T11:12:51.992Z,23.70
2018-05-24T11:15:19.501Z,23.60
2018-05-24T11:17:47.008Z,24.10
2018-05-24T11:20:14.496Z,24.00
2018-05-24T11:22:41.995Z,23.40
2018-05-24T11:25:09.527Z,22.60
2018-05-24T11:27:37.770Z,22.30
2018-05-24T11:30:06.024Z,23.40
2018-05-24T11:32:33.525Z,23.30
2018-05-24T11:35:01.032Z,23.30
2018-05-24T11:37:28.535Z,23.70
2018-05-24T11:39:56.029Z,24.30
2018-05-24T11:42:23.496Z,25.10
2018-05-24T11:44:50.992Z,25.80
2018-05-24T11:47:18.470Z,25.90
2018-05-24T11:49:45.981Z,25.90
2018-05-24T11:52:13.482Z,25.30
2018-05-24T11:54:41.747Z,25.60
2018-05-24T11:57:09.217Z,25.60
2018-05-24T11:59:37.474Z,26.00
2018-05-24T12:02:04.943Z,25.90
2018-05-24T12:04:33.207Z,26.10
2018-05-24T12:07:00.735Z,26.10
2018-05-24T12:09:28.212Z,26.50
2018-05-24T12:11:55.691Z,26.70
2018-05-24T12:14:23.164Z,26.70
2018-05-24T12:16:51.477Z,25.70
2018-05-24T12:19:18.980Z,25.70
2018-05-24T12:21:46.488Z,25.70
2018-05-24T12:24:13.995Z,25.50
2018-05-24T12:26:41.489Z,25.00
2018-05-24T12:29:09.008Z,24.70
2018-05-24T12:31:36.476Z,24.80
2018-05-24T12:34:03.983Z,24.50
2018-05-24T12:36:31.499Z,24.20
2018-05-24T12:38:58.985Z,24.20
2018-05-24T12:41:26.481Z,24.40
2018-05-24T12:43:53.981Z,24.60
2018-05-24T12:46:22.236Z,25.40
2018-05-24T12:48:49.744Z,25.30
2018-05-24T12:51:17.222Z,25.40
2018-05-24T12:53:44.724Z,25.60
2018-05-24T12:56:12.245Z,25.80
2018-05-24T12:58:39.748Z,25.80
2018-05-24T13:01:07.217Z,25.80
2018-05-24T13:03:35.486Z,26.10
2018-05-24T13:06:02.955Z,26.10
2018-05-24T13:08:31.243Z,26.40
2018-05-24T13:10:59.493Z,26.50
2018-05-24T13:13:26.987Z,26.50
2018-05-24T13:15:54.492Z,26.10
2018-05-24T13:18:22.820Z,25.80
2018-05-24T13:20:50.322Z,25.80
2018-05-24T13:23:17.844Z,25.60
2018-05-24T13:25:45.357Z,25.60
2018-05-24T13:28:12.848Z,26.10
2018-05-24T13:30:41.095Z,26.70
2018-05-24T13:33:08.608Z,26.70
2018-05-24T13:35:36.131Z,26.40
2018-05-24T13:38:04.370Z,25.90
2018-05-24T13:40:31.872Z,25.90
2018-05-24T13:43:00.108Z,25.30
2018-05-24T13:45:27.614Z,25.30
2018-05-24T13:47:55.852Z,24.30
2018-05-24T13:50:23.346Z,24.30
2018-05-24T13:52:50.828Z,23.90
2018-05-24T13:55:18.330Z,23.30
2018-05-24T13:57:45.810Z,22.90
2018-05-24T14:00:14.068Z,22.20
2018-05-24T14:02:41.543Z,22.20
2018-05-24T14:05:09.852Z,21.40
2018-05-24T14:07:37.327Z,21.30
2018-05-24T14:10:04.829Z,20.80
2018-05-24T14:12:32.335Z,19.50
2018-05-24T14:14:59.840Z,18.10
2018-05-24T14:17:27.377Z,17.80
2018-05-24T14:19:54.842Z,17.90
2018-05-24T14:22:22.342Z,17.90
2018-05-24T14:24:50.595Z,17.60
2018-05-24T14:27:18.118Z,17.60
2018-05-24T14:29:45.591Z,17.60
2018-05-24T14:32:13.088Z,17.70
2018-05-24T14:34:41.330Z,17.70
2018-05-24T14:37:08.838Z,17.70
2018-05-24T14:39:36.335Z,17.90
2018-05-24T14:42:03.878Z,18.00
2018-05-24T14:44:31.365Z,18.20
2018-05-24T14:46:58.930Z,18.20
2018-05-24T14:49:26.448Z,18.20
2018-05-24T14:51:53.916Z,18.30
2018-05-24T14:54:21.418Z,18.30
2018-05-24T14:56:48.918Z,18.30
2018-05-24T14:59:16.427Z,18.20
2018-05-24T15:01:43.915Z,18.30
2018-05-24T15:04:12.190Z,18.30
2018-05-24T15:06:40.461Z,18.30
2018-05-24T15:09:07.972Z,18.20
2018-05-24T15:11:35.466Z,18.20
2018-05-24T15:14:02.968Z,18.20
2018-05-24T15:16:30.448Z,18.40
2018-05-24T15:18:58.017Z,18.40
2018-05-24T15:21:25.520Z,18.50
2018-05-24T15:23:53.023Z,18.50
2018-05-24T15:26:20.519Z,18.50
2018-05-24T15:28:48.039Z,18.50
2018-05-24T15:31:15.529Z,18.50
2018-05-24T15:33:43.014Z,18.60
2018-05-24T15:36:11.279Z,18.80
2018-05-24T15:38:38.760Z,18.80
2018-05-24T15:41:07.034Z,18.60
2018-05-24T15:43:35.328Z,18.60
2018-05-24T15:46:03.571Z,18.60
2018-05-24T15:48:31.048Z,18.60
2018-05-24T15:50:59.323Z,18.60
2018-05-24T15:53:27.582Z,18.80
2018-05-24T15:55:55.088Z,18.80
2018-05-24T15:58:22.571Z,19.40
2018-05-24T16:00:50.070Z,19.60
2018-05-24T16:03:18.311Z,20.20
2018-05-24T16:05:45.780Z,20.10
2018-05-24T16:08:13.284Z,20.50
2018-05-24T16:10:40.763Z,20.60
2018-05-24T16:13:08.267Z,20.20
2018-05-24T16:15:35.738Z,20.30
2018-05-24T16:18:04.010Z,20.30
2018-05-24T16:20:31.499Z,20.30
2018-05-24T16:22:58.984Z,20.10
2018-05-24T16:25:26.458Z,19.90
2018-05-24T16:27:53.959Z,19.80
2018-05-24T16:30:22.201Z,20.10
2018-05-24T16:32:49.709Z,20.10
2018-05-24T16:35:17.183Z,20.20
2018-05-24T16:40:19.424Z,19.30
2018-05-24T16:42:46.904Z,19.30
2018-05-24T16:45:15.191Z,19.10
2018-05-24T16:47:42.662Z,19.10
2018-05-24T16:50:10.175Z,19.10
2018-05-24T16:52:37.667Z,18.90
2018-05-24T16:55:05.950Z,18.70
2018-05-24T16:57:33.424Z,18.60
2018-05-24T17:00:00.947Z,18.70
2018-05-24T17:02:29.224Z,18.40
2018-05-24T17:04:57.482Z,18.10
2018-05-24T17:07:24.974Z,18.10
2018-05-24T17:09:54.103Z,18.00
2018-05-24T17:12:21.623Z,18.00
2018-05-24T17:14:50.477Z,18.00
2018-05-24T17:17:17.959Z,17.90
2018-05-24T17:19:46.225Z,18.10
2018-05-24T17:22:13.736Z,18.00
2018-05-24T17:24:41.210Z,17.90
2018-05-24T17:27:08.738Z,17.70
2018-05-24T17:29:36.218Z,17.50
2018-05-24T17:32:03.823Z,17.50
2018-05-24T17:34:31.312Z,17.50
2018-05-24T17:36:59.064Z,17.50
2018-05-24T17:39:27.351Z,17.40
2018-05-24T17:41:54.864Z,17.40
2018-05-24T17:44:22.372Z,17.30
2018-05-24T17:46:49.877Z,17.20
2018-05-24T17:49:17.399Z,17.20
2018-05-24T17:51:44.923Z,17.10
2018-05-24T17:54:12.428Z,17.10
2018-05-24T17:56:39.949Z,17.10
2018-05-24T17:59:08.211Z,17.00
2018-05-24T18:01:35.712Z,17.00
2018-05-24T18:04:03.201Z,16.80
2018-05-24T18:06:30.709Z,16.70
2018-05-24T18:08:58.967Z,16.60
2018-05-24T18:11:26.488Z,16.60
2018-05-24T18:13:53.980Z,16.70
2018-05-24T18:16:21.479Z,16.80
2018-05-24T18:18:48.994Z,16.80
2018-05-24T18:21:16.511Z,16.80
2018-05-24T18:23:44.015Z,16.60
2018-05-24T18:26:12.185Z,16.50
2018-05-24T18:28:41.033Z,16.40
2018-05-24T18:31:08.520Z,16.40
2018-05-24T18:33:36.091Z,16.30
2018-05-24T18:36:03.577Z,16.50
2018-05-24T18:38:31.179Z,16.50
2018-05-24T18:40:58.664Z,16.60
2018-05-24T18:43:26.155Z,16.60
2018-05-24T18:45:54.412Z,16.30
2018-05-24T18:48:21.944Z,16.20
2018-05-24T18:50:49.455Z,16.20
2018-05-24T18:53:17.695Z,16.10
2018-05-24T18:55:45.199Z,16.00
2018-05-24T18:58:13.445Z,15.90
2018-05-24T19:00:41.014Z,15.90
2018-05-24T19:03:08.493Z,15.80
2018-05-24T19:05:36.800Z,15.60
2018-05-24T19:08:04.276Z,15.60
2018-05-24T19:10:31.766Z,15.60
2018-05-24T19:12:59.266Z,15.50
2018-05-24T19:15:26.763Z,15.60
2018-05-24T19:17:54.273Z,15.60
2018-05-24T19:20:21.749Z,15.50
2018-05-24T19:22:49.256Z,15.40
2018-05-24T19:25:16.744Z,15.40
2018-05-24T19:27:45.014Z,15.40
2018-05-24T19:30:13.267Z,15.50
2018-05-24T19:32:40.808Z,15.50
2018-05-24T19:35:08.292Z,15.40
2018-05-24T19:37:36.614Z,15.40
2018-05-24T19:40:04.112Z,15.40
2018-05-24T19:42:31.606Z,15.40
2018-05-24T19:44:59.870Z,15.20
2018-05-24T19:47:27.398Z,15.20
2018-05-24T19:49:54.903Z,15.30
2018-05-24T19:52:23.146Z,15.30
2018-05-24T19:54:50.758Z,15.30
2018-05-24T19:57:18.236Z,15.20
2018-05-24T19:59:45.738Z,15.20
2018-05-24T20:02:13.997Z,15.10
2018-05-24T20:04:41.538Z,15.10
2018-05-24T20:07:09.013Z,15.10
2018-05-24T20:09:36.547Z,15.00
2018-05-24T20:12:04.048Z,15.00
2018-05-24T20:14:33.452Z,15.00
2018-05-24T20:17:01.002Z,15.20
2018-05-24T20:19:28.531Z,15.20
2018-05-24T20:21:56.027Z,14.90
2018-05-24T20:24:23.563Z,14.60
2018-05-24T20:26:51.071Z,14.60
2018-05-24T20:29:19.362Z,14.60
2018-05-24T20:31:46.867Z,14.60
2018-05-24T20:34:14.369Z,14.40
2018-05-24T20:36:42.645Z,14.20
2018-05-24T20:39:10.888Z,14.20
2018-05-24T20:41:38.451Z,14.10
2018-05-24T20:44:05.868Z,14.10
2018-05-24T20:46:33.375Z,14.10
2018-05-24T20:49:00.953Z,14.20
2018-05-24T20:51:29.228Z,14.00
2018-05-24T20:53:57.483Z,14.00
2018-05-24T20:56:24.965Z,14.00
2018-05-24T20:58:53.273Z,14.00
2018-05-24T21:01:20.763Z,14.00
2018-05-24T21:03:48.268Z,13.90
2018-05-24T21:06:16.556Z,14.00
2018-05-24T21:08:44.084Z,13.90
2018-05-24T21:11:11.559Z,14.00
2018-05-24T21:13:39.875Z,13.90
2018-05-24T21:16:07.351Z,13.90
2018-05-24T21:18:34.845Z,13.90
2018-05-24T21:21:03.125Z,13.80
2018-05-24T21:23:31.419Z,13.80
2018-05-24T21:25:59.720Z,13.90
2018-05-24T21:28:27.212Z,13.90
2018-05-24T21:30:54.726Z,13.80
2018-05-24T21:33:22.211Z,13.80
2018-05-24T21:35:49.714Z,13.80
2018-05-24T21:38:17.967Z,13.70
2018-05-24T21:40:45.463Z,13.70
2018-05-24T21:43:13.732Z,13.70
2018-05-24T21:45:41.971Z,13.70
2018-05-24T21:48:09.491Z,13.70
2018-05-24T21:50:36.962Z,13.70
2018-05-24T21:53:04.467Z,13.60
2018-05-24T21:55:31.958Z,13.60
2018-05-24T21:57:59.468Z,13.60
2018-05-24T22:00:26.992Z,13.60
2018-05-24T22:02:54.495Z,13.60
2018-05-24T22:05:21.964Z,13.60
2018-05-24T22:07:49.462Z,13.50
2018-05-24T22:10:16.939Z,13.50
2018-05-24T22:12:44.446Z,13.50
2018-05-24T22:15:11.924Z,13.50
2018-05-24T22:17:40.200Z,13.40
2018-05-24T22:20:08.435Z,13.40
2018-05-24T22:22:35.970Z,13.30
2018-05-24T22:25:03.442Z,13.30
2018-05-24T22:27:30.962Z,13.20
2018-05-24T22:29:59.192Z,13.30
2018-05-24T22:32:26.689Z,13.20
2018-05-24T22:34:54.956Z,13.30
2018-05-24T22:37:23.236Z,13.30
2018-05-24T22:39:51.497Z,13.30
2018-05-24T22:42:18.983Z,13.30
2018-05-24T22:44:46.490Z,13.30
2018-05-24T22:47:13.999Z,13.20
2018-05-24T22:49:42.236Z,13.10
2018-05-24T22:52:09.805Z,13.10
2018-05-24T22:54:37.284Z,13.20
2018-05-24T22:57:05.555Z,13.20
2018-05-24T22:59:33.073Z,13.20
2018-05-24T23:02:00.720Z,13.30
2018-05-24T23:04:28.223Z,13.40
2018-05-24T23:06:55.705Z,13.40
2018-05-24T23:09:23.980Z,13.40
2018-05-24T23:11:52.219Z,13.30
2018-05-24T23:14:19.714Z,13.20
2018-05-24T23:16:47.981Z,13.20
2018-05-24T23:19:15.459Z,13.20
2018-05-24T23:21:42.975Z,13.10
2018-05-24T23:24:10.600Z,13.00
2018-05-24T23:26:38.090Z,13.10
2018-05-24T23:29:05.563Z,13.10
2018-05-24T23:31:33.081Z,13.00
2018-05-24T23:34:00.566Z,13.00
2018-05-24T23:36:28.067Z,13.00
2018-05-24T23:38:55.543Z,13.00
2018-05-24T23:41:23.049Z,13.00
2018-05-24T23:43:50.534Z,13.00
2018-05-24T23:46:18.857Z,13.00
2018-05-24T23:48:46.368Z,13.00
2018-05-24T23:51:14.642Z,13.20
2018-05-24T23:53:42.137Z,13.20
2018-05-24T23:56:09.659Z,13.10
2018-05-24T23:58:37.170Z,13.00
